Preview of NWS' New Version of Forecast
This preview is not operational and should not be used for support decisions.

Terminal Aerodrome Forecast (TAF)

Issued by National Weather Service (NWS)

                            
000
FTUS42 KKEY 211508 AAB
TAFEYW
TAF AMD
KEYW 211508Z 2115/2212 35011KT P6SM SCT020
     FM211600 34014G21KT P6SM SCT025=